Time;durP1;ratioP1;P1;durP2;ratioP2;P2;SDS_P1;SDS_P2;PMS_P1;PMS_P2;Temp;Humidity;BMP_temperature;BMP_pressure;BME280_temperature;BME280_humidity;BME280_pressure;Samples;Min_cycle;Max_cycle;Signal;HPM_P1;HPM_P2
2022/03/31 00:01:17;;;;;;;;;44.00;35.00;;;;;;;;5081894;27;46196;-82
2022/03/31 00:03:42;;;;;;;;;40.25;32.25;;;;;;;;5081627;27;45460;-83
2022/03/31 00:06:07;;;;;;;;;42.50;35.25;;;;;;;;5087554;27;45516;-83
2022/03/31 00:08:32;;;;;;;;;43.00;35.75;;;;;;;;5084289;27;45485;-83
2022/03/31 00:10:57;;;;;;;;;45.00;36.00;;;;;;;;5089371;27;46109;-84
2022/03/31 00:13:28;;;;;;;;;41.50;34.75;;;;;;;;5081615;27;45607;-84
2022/03/31 00:15:54;;;;;;;;;40.75;33.25;;;;;;;;5084500;27;45271;-83
2022/03/31 00:18:19;;;;;;;;;41.00;35.75;;;;;;;;5089331;27;45400;-83
2022/03/31 00:20:45;;;;;;;;;48.00;35.00;;;;;;;;5084000;27;45416;-83
2022/03/31 00:23:10;;;;;;;;;36.25;34.50;;;;;;;;5082888;27;45564;-82
2022/03/31 00:25:35;;;;;;;;;35.75;32.00;;;;;;;;5078343;27;45209;-83
2022/03/31 00:28:03;;;;;;;;;36.50;32.75;;;;;;;;5082064;27;48758;-82
2022/03/31 00:30:29;;;;;;;;;36.75;34.25;;;;;;;;5075200;27;45551;-82
2022/03/31 00:32:54;;;;;;;;;38.50;34.25;;;;;;;;5081100;27;45462;-82
2022/03/31 00:35:19;;;;;;;;;33.00;30.25;;;;;;;;5090986;27;45655;-81
2022/03/31 00:37:45;;;;;;;;;33.50;28.75;;;;;;;;5087865;27;46365;-83
2022/03/31 00:40:12;;;;;;;;;36.00;31.75;;;;;;;;5082975;27;45709;-83
2022/03/31 00:42:41;;;;;;;;;38.00;30.50;;;;;;;;5091827;27;45708;-84
2022/03/31 00:45:11;;;;;;;;;37.75;32.00;;;;;;;;5092284;27;45654;-82
2022/03/31 00:47:36;;;;;;;;;39.25;32.00;;;;;;;;5085740;27;45441;-82
2022/03/31 00:50:02;;;;;;;;;37.25;30.25;;;;;;;;5086016;27;45710;-82
2022/03/31 00:52:27;;;;;;;;;27.00;23.75;;;;;;;;5088901;27;45455;-83
2022/03/31 00:54:52;;;;;;;;;31.50;30.75;;;;;;;;5084878;27;45466;-84
2022/03/31 00:57:17;;;;;;;;;31.75;29.75;;;;;;;;5081778;27;45462;-83
2022/03/31 00:59:42;;;;;;;;;33.50;29.25;;;;;;;;5083042;27;46653;-83
2022/03/31 01:02:08;;;;;;;;;31.00;29.25;;;;;;;;5081791;27;45452;-83
2022/03/31 01:04:34;;;;;;;;;37.50;32.00;;;;;;;;5076134;27;45228;-83
2022/03/31 01:06:59;;;;;;;;;29.75;24.00;;;;;;;;5077957;27;45451;-83
2022/03/31 01:09:25;;;;;;;;;34.75;29.50;;;;;;;;5081763;27;46434;-83
2022/03/31 01:11:51;;;;;;;;;28.25;26.00;;;;;;;;5078925;27;45604;-82
2022/03/31 01:14:16;;;;;;;;;24.75;24.50;;;;;;;;5092450;27;45564;-83
2022/03/31 01:16:42;;;;;;;;;29.75;27.00;;;;;;;;5089382;27;45220;-82
2022/03/31 01:19:08;;;;;;;;;35.50;32.25;;;;;;;;5088735;27;48264;-83
2022/03/31 01:21:40;;;;;;;;;32.00;28.50;;;;;;;;5079013;27;45718;-82
2022/03/31 01:24:06;;;;;;;;;36.25;31.00;;;;;;;;5086115;27;45422;-82
2022/03/31 01:26:33;;;;;;;;;34.00;32.00;;;;;;;;5082162;27;45581;-82
2022/03/31 01:28:58;;;;;;;;;37.75;33.00;;;;;;;;5077556;27;46861;-83
2022/03/31 01:31:23;;;;;;;;;34.00;30.25;;;;;;;;5079306;27;45483;-82
2022/03/31 01:33:49;;;;;;;;;40.25;31.00;;;;;;;;5079439;27;45345;-83
2022/03/31 01:36:14;;;;;;;;;36.00;31.50;;;;;;;;5078859;27;45464;-83
2022/03/31 01:38:40;;;;;;;;;36.50;32.75;;;;;;;;5084923;27;46295;-83
2022/03/31 01:41:07;;;;;;;;;39.25;35.50;;;;;;;;5084372;27;45481;-83
2022/03/31 01:43:32;;;;;;;;;34.00;30.25;;;;;;;;5083360;27;45428;-82
2022/03/31 01:45:57;;;;;;;;;36.00;29.25;;;;;;;;5085406;27;45485;-83
2022/03/31 01:48:22;;;;;;;;;40.00;34.00;;;;;;;;5072694;27;47263;-83
2022/03/31 01:50:48;;;;;;;;;35.00;32.50;;;;;;;;5073954;27;45516;-83
2022/03/31 01:53:14;;;;;;;;;33.25;27.50;;;;;;;;5082061;27;45328;-83
2022/03/31 01:55:40;;;;;;;;;35.50;31.25;;;;;;;;5077954;27;45533;-83
2022/03/31 01:58:07;;;;;;;;;38.00;32.25;;;;;;;;5075485;27;45617;-82
2022/03/31 02:00:32;;;;;;;;;37.50;29.50;;;;;;;;5076364;27;45601;-83
2022/03/31 02:02:59;;;;;;;;;42.25;35.75;;;;;;;;5089560;27;45473;-83
2022/03/31 02:05:24;;;;;;;;;35.25;33.00;;;;;;;;5077713;27;45394;-82
2022/03/31 02:07:52;;;;;;;;;37.25;29.25;;;;;;;;5092313;27;46981;-83
2022/03/31 02:10:18;;;;;;;;;34.75;32.50;;;;;;;;5084839;27;45541;-82
2022/03/31 02:12:43;;;;;;;;;34.25;31.50;;;;;;;;5087385;27;45434;-83
2022/03/31 02:15:10;;;;;;;;;40.25;36.50;;;;;;;;5087872;27;45650;-83
2022/03/31 02:17:35;;;;;;;;;36.25;33.25;;;;;;;;5095002;27;46415;-83
2022/03/31 02:20:01;;;;;;;;;41.75;34.50;;;;;;;;5083944;27;45400;-84
2022/03/31 02:22:26;;;;;;;;;43.25;36.75;;;;;;;;5085986;27;45456;-84
2022/03/31 02:24:51;;;;;;;;;52.25;38.00;;;;;;;;5082470;27;45433;-82
2022/03/31 02:27:17;;;;;;;;;34.00;32.25;;;;;;;;5081163;27;46283;-83
2022/03/31 02:29:42;;;;;;;;;42.75;37.25;;;;;;;;5077276;27;45371;-82
2022/03/31 02:32:07;;;;;;;;;50.25;38.00;;;;;;;;5086404;27;45388;-83
2022/03/31 02:34:33;;;;;;;;;51.00;39.50;;;;;;;;5089482;27;45818;-83
2022/03/31 02:36:59;;;;;;;;;51.00;38.75;;;;;;;;5085057;27;46552;-83
2022/03/31 02:39:24;;;;;;;;;48.00;38.25;;;;;;;;5087478;27;45458;-82
2022/03/31 02:41:49;;;;;;;;;45.50;39.00;;;;;;;;5090153;27;45440;-83
2022/03/31 02:44:16;;;;;;;;;50.50;38.25;;;;;;;;5094536;27;45379;-83
2022/03/31 02:46:41;;;;;;;;;45.25;36.25;;;;;;;;5088647;27;45568;-81
2022/03/31 02:49:07;;;;;;;;;49.25;39.00;;;;;;;;5080972;27;45334;-83
2022/03/31 02:51:32;;;;;;;;;48.00;41.00;;;;;;;;5093157;27;45403;-83
2022/03/31 02:56:41;;;;;;;;;49.25;39.25;;;;;;;;5086895;27;45811;-83
2022/03/31 02:59:09;;;;;;;;;50.00;40.75;;;;;;;;5086416;27;45358;-83
2022/03/31 03:01:34;;;;;;;;;46.00;39.75;;;;;;;;5096981;27;45279;-83
2022/03/31 03:04:01;;;;;;;;;46.50;36.00;;;;;;;;5089907;27;45281;-83
2022/03/31 03:06:26;;;;;;;;;50.00;40.25;;;;;;;;5095333;27;45495;-83
2022/03/31 03:08:51;;;;;;;;;52.50;41.50;;;;;;;;5091651;27;45391;-83
2022/03/31 03:11:17;;;;;;;;;49.75;40.25;;;;;;;;5128004;27;45277;-83
2022/03/31 03:13:43;;;;;;;;;52.25;43.00;;;;;;;;5115198;27;45371;-83
2022/03/31 03:16:08;;;;;;;;;53.00;41.75;;;;;;;;5082758;27;46568;-83
2022/03/31 03:18:36;;;;;;;;;51.00;42.75;;;;;;;;5082644;27;45532;-83
2022/03/31 03:21:04;;;;;;;;;51.00;40.75;;;;;;;;5078003;27;45540;-83
2022/03/31 03:23:29;;;;;;;;;50.50;40.75;;;;;;;;5079808;27;45445;-83
2022/03/31 03:25:54;;;;;;;;;53.00;42.75;;;;;;;;5093418;27;45727;-83
2022/03/31 03:28:19;;;;;;;;;53.75;43.25;;;;;;;;5090181;27;46128;-83
2022/03/31 03:30:45;;;;;;;;;50.00;38.75;;;;;;;;5091088;27;45342;-83
2022/03/31 03:33:10;;;;;;;;;53.50;42.25;;;;;;;;5090810;27;45530;-83
2022/03/31 03:35:36;;;;;;;;;53.25;42.75;;;;;;;;5094126;27;45409;-83
2022/03/31 03:38:01;;;;;;;;;56.00;42.75;;;;;;;;5093586;27;45465;-83
2022/03/31 03:40:26;;;;;;;;;56.25;45.25;;;;;;;;5091665;27;45353;-83
2022/03/31 03:42:55;;;;;;;;;57.75;44.00;;;;;;;;5095730;27;46130;-83
2022/03/31 03:45:20;;;;;;;;;55.75;45.50;;;;;;;;5095423;27;45818;-83
2022/03/31 03:47:45;;;;;;;;;51.75;41.50;;;;;;;;5095256;27;45347;-83
2022/03/31 03:50:11;;;;;;;;;48.75;41.50;;;;;;;;5096275;27;45343;-83
2022/03/31 03:52:36;;;;;;;;;55.00;44.25;;;;;;;;5095066;27;45345;-83
2022/03/31 03:55:01;;;;;;;;;56.50;43.25;;;;;;;;5093821;27;46464;-83
2022/03/31 03:57:27;;;;;;;;;53.25;43.75;;;;;;;;5095101;27;45385;-83
2022/03/31 03:59:52;;;;;;;;;56.25;43.25;;;;;;;;5095477;27;45393;-84
2022/03/31 04:02:18;;;;;;;;;51.75;41.25;;;;;;;;5095228;27;45254;-83
2022/03/31 04:04:43;;;;;;;;;50.25;43.00;;;;;;;;5096599;27;45482;-83
2022/03/31 04:07:08;;;;;;;;;55.00;42.50;;;;;;;;5095085;27;45495;-83
2022/03/31 04:09:33;;;;;;;;;55.00;42.75;;;;;;;;5093673;27;45341;-83
2022/03/31 04:11:58;;;;;;;;;49.25;38.00;;;;;;;;5093919;27;45397;-83
2022/03/31 04:14:24;;;;;;;;;50.50;42.25;;;;;;;;5094804;27;45503;-83
2022/03/31 04:16:49;;;;;;;;;51.00;41.75;;;;;;;;5096792;27;45394;-83
2022/03/31 04:19:14;;;;;;;;;52.00;40.50;;;;;;;;5094712;27;45534;-83
2022/03/31 04:21:39;;;;;;;;;53.25;42.75;;;;;;;;5093730;27;45452;-83
2022/03/31 04:24:05;;;;;;;;;54.00;43.50;;;;;;;;5085166;27;45850;-83
2022/03/31 04:26:30;;;;;;;;;51.00;42.00;;;;;;;;5064393;27;45359;-83
2022/03/31 04:28:56;;;;;;;;;46.50;38.75;;;;;;;;5077992;27;45856;-82
2022/03/31 04:31:21;;;;;;;;;52.50;41.00;;;;;;;;5087891;27;45537;-82
2022/03/31 04:33:46;;;;;;;;;58.25;44.75;;;;;;;;5067862;27;46204;-83
2022/03/31 04:36:12;;;;;;;;;54.00;42.25;;;;;;;;5067494;27;47722;-82
2022/03/31 04:38:37;;;;;;;;;56.00;40.75;;;;;;;;5050551;28;45799;-83
2022/03/31 04:41:03;;;;;;;;;52.75;41.50;;;;;;;;5060796;28;45438;-83
2022/03/31 04:43:28;;;;;;;;;47.75;40.00;;;;;;;;5073769;28;45335;-83
2022/03/31 04:45:53;;;;;;;;;52.00;42.25;;;;;;;;5068951;27;45400;-83
2022/03/31 04:48:19;;;;;;;;;57.50;42.50;;;;;;;;5077784;27;45312;-83
2022/03/31 04:50:44;;;;;;;;;48.50;39.00;;;;;;;;5062433;27;45577;-83
2022/03/31 04:53:11;;;;;;;;;54.50;43.75;;;;;;;;5039523;28;48029;-83
2022/03/31 04:55:36;;;;;;;;;57.50;46.00;;;;;;;;5059660;28;45450;-83
2022/03/31 04:58:01;;;;;;;;;54.25;43.00;;;;;;;;5060291;28;45562;-83
2022/03/31 05:00:27;;;;;;;;;57.50;44.75;;;;;;;;5062897;27;45426;-83
2022/03/31 05:02:52;;;;;;;;;53.00;44.50;;;;;;;;5056558;27;48560;-83
2022/03/31 05:05:17;;;;;;;;;53.00;42.50;;;;;;;;5074336;27;45359;-83
2022/03/31 05:07:42;;;;;;;;;62.00;45.25;;;;;;;;5058782;28;45543;-82
2022/03/31 05:10:08;;;;;;;;;56.25;45.75;;;;;;;;5063732;27;45380;-82
2022/03/31 05:12:33;;;;;;;;;51.50;42.75;;;;;;;;5062234;27;46930;-83
2022/03/31 05:14:58;;;;;;;;;57.00;44.25;;;;;;;;5073892;27;45531;-83
2022/03/31 05:17:23;;;;;;;;;56.75;43.00;;;;;;;;5072522;28;45370;-83
2022/03/31 05:19:49;;;;;;;;;60.00;46.50;;;;;;;;5070607;27;45418;-82
2022/03/31 05:22:14;;;;;;;;;56.75;43.25;;;;;;;;5049787;28;48292;-83
2022/03/31 05:24:39;;;;;;;;;46.25;40.50;;;;;;;;5090183;27;45362;-83
2022/03/31 05:27:04;;;;;;;;;59.00;46.25;;;;;;;;5092988;27;45476;-83
2022/03/31 05:29:30;;;;;;;;;59.50;47.50;;;;;;;;5099422;27;45365;-83
2022/03/31 05:31:57;;;;;;;;;51.25;42.25;;;;;;;;5091282;27;45431;-83
2022/03/31 05:34:23;;;;;;;;;56.75;46.25;;;;;;;;5092539;27;45448;-83
2022/03/31 05:36:48;;;;;;;;;54.25;45.00;;;;;;;;5092348;27;45406;-83
2022/03/31 05:39:13;;;;;;;;;59.00;44.50;;;;;;;;5093740;27;45290;-83
2022/03/31 05:41:39;;;;;;;;;59.50;48.00;;;;;;;;5090874;27;47188;-83
2022/03/31 05:44:04;;;;;;;;;59.50;45.50;;;;;;;;5094762;27;45564;-83
2022/03/31 05:46:30;;;;;;;;;51.50;42.75;;;;;;;;5096784;27;45469;-84
2022/03/31 05:48:55;;;;;;;;;59.75;47.00;;;;;;;;5095308;27;45481;-83
2022/03/31 05:51:20;;;;;;;;;59.00;43.75;;;;;;;;5095771;27;46006;-83
2022/03/31 05:53:46;;;;;;;;;64.75;46.50;;;;;;;;5095819;27;45911;-83
2022/03/31 05:56:11;;;;;;;;;61.50;48.00;;;;;;;;5097655;27;45365;-83
2022/03/31 05:58:37;;;;;;;;;56.50;45.75;;;;;;;;5097349;27;45416;-83
2022/03/31 06:01:02;;;;;;;;;57.75;45.00;;;;;;;;5096218;27;46483;-83
2022/03/31 06:03:27;;;;;;;;;63.75;47.25;;;;;;;;5095467;27;45939;-83
2022/03/31 06:05:52;;;;;;;;;68.00;50.25;;;;;;;;5095900;27;45340;-83
2022/03/31 06:08:18;;;;;;;;;64.75;49.00;;;;;;;;5097280;27;45333;-83
2022/03/31 06:10:43;;;;;;;;;62.00;49.75;;;;;;;;5099020;27;46730;-83
2022/03/31 06:13:09;;;;;;;;;60.50;48.75;;;;;;;;5096694;27;45309;-83
2022/03/31 06:15:35;;;;;;;;;66.50;52.00;;;;;;;;5095530;27;45321;-83
2022/03/31 06:18:00;;;;;;;;;64.25;49.75;;;;;;;;5095792;27;45298;-83
2022/03/31 06:20:26;;;;;;;;;67.00;50.00;;;;;;;;5095476;27;48034;-83
2022/03/31 06:22:52;;;;;;;;;67.00;52.25;;;;;;;;5098406;27;45228;-83
2022/03/31 06:25:17;;;;;;;;;65.75;49.75;;;;;;;;5096708;27;45831;-83
2022/03/31 06:27:43;;;;;;;;;63.25;50.25;;;;;;;;5095117;27;45555;-83
2022/03/31 06:30:09;;;;;;;;;61.75;49.50;;;;;;;;5094444;27;46663;-83
2022/03/31 06:32:34;;;;;;;;;68.75;53.00;;;;;;;;5095070;27;45408;-83
2022/03/31 06:35:00;;;;;;;;;61.25;49.75;;;;;;;;5097942;27;45353;-83
2022/03/31 06:37:25;;;;;;;;;65.00;52.67;;;;;;;;5096597;27;45396;-83
2022/03/31 06:39:50;;;;;;;;;62.50;47.75;;;;;;;;5096454;27;46516;-83
2022/03/31 06:42:15;;;;;;;;;68.25;52.25;;;;;;;;5096000;27;45380;-83
2022/03/31 06:44:41;;;;;;;;;68.50;52.50;;;;;;;;5096403;27;45365;-83
2022/03/31 06:47:07;;;;;;;;;65.75;50.25;;;;;;;;5095758;27;45499;-82
2022/03/31 06:49:34;;;;;;;;;66.25;48.75;;;;;;;;5097732;27;46440;-83
2022/03/31 06:51:59;;;;;;;;;70.00;50.25;;;;;;;;5095880;27;45349;-83
2022/03/31 06:54:24;;;;;;;;;59.75;45.50;;;;;;;;5094931;27;45595;-83
2022/03/31 06:56:51;;;;;;;;;67.00;53.75;;;;;;;;5094216;27;45519;-83
2022/03/31 06:59:16;;;;;;;;;63.75;50.00;;;;;;;;5095482;27;45390;-83
2022/03/31 07:01:42;;;;;;;;;64.00;50.75;;;;;;;;5097615;27;45531;-83
2022/03/31 07:04:07;;;;;;;;;68.50;49.25;;;;;;;;5095855;27;45463;-83
2022/03/31 07:06:33;;;;;;;;;61.25;48.50;;;;;;;;5094424;27;45510;-83
2022/03/31 07:08:58;;;;;;;;;63.00;51.75;;;;;;;;5095213;27;46633;-83
2022/03/31 07:11:24;;;;;;;;;68.25;50.25;;;;;;;;5095422;27;45304;-83
2022/03/31 07:13:49;;;;;;;;;62.75;48.25;;;;;;;;5096407;27;45466;-83
2022/03/31 07:16:16;;;;;;;;;58.75;46.00;;;;;;;;5095306;27;45508;-83
2022/03/31 07:18:42;;;;;;;;;59.25;48.50;;;;;;;;5095545;27;46171;-83
2022/03/31 07:21:07;;;;;;;;;49.00;40.75;;;;;;;;5095527;27;45482;-83
2022/03/31 07:23:32;;;;;;;;;59.75;47.00;;;;;;;;5095455;27;45503;-83
2022/03/31 07:25:57;;;;;;;;;57.25;44.50;;;;;;;;5098109;27;45290;-83
2022/03/31 07:28:22;;;;;;;;;54.75;44.00;;;;;;;;5094892;27;46632;-84
2022/03/31 07:30:48;;;;;;;;;57.00;45.00;;;;;;;;5095441;27;45448;-83
2022/03/31 07:33:13;;;;;;;;;57.00;46.50;;;;;;;;5095759;27;45338;-85
2022/03/31 07:35:39;;;;;;;;;59.50;47.00;;;;;;;;5095547;27;45390;-85
2022/03/31 07:38:07;;;;;;;;;63.50;46.75;;;;;;;;5096910;27;45416;-85
2022/03/31 07:40:33;;;;;;;;;59.25;48.25;;;;;;;;5096405;27;45231;-85
2022/03/31 07:42:58;;;;;;;;;57.25;46.75;;;;;;;;5095025;27;45547;-85
2022/03/31 07:45:23;;;;;;;;;64.00;48.50;;;;;;;;5093956;27;45540;-85
2022/03/31 07:47:49;;;;;;;;;54.50;44.25;;;;;;;;5093810;27;47341;-85
2022/03/31 07:50:16;;;;;;;;;58.25;43.50;;;;;;;;5093989;27;45432;-85
2022/03/31 07:52:42;;;;;;;;;54.50;42.00;;;;;;;;5096250;27;45476;-85
2022/03/31 07:55:09;;;;;;;;;53.50;42.25;;;;;;;;5095233;27;45548;-85
2022/03/31 07:57:35;;;;;;;;;55.50;45.50;;;;;;;;5094632;27;46493;-85
2022/03/31 08:00:00;;;;;;;;;54.00;43.50;;;;;;;;5095411;27;45367;-85
2022/03/31 08:02:26;;;;;;;;;53.25;41.75;;;;;;;;5095267;27;45286;-85
2022/03/31 08:04:54;;;;;;;;;54.00;44.75;;;;;;;;5097191;27;45226;-85
2022/03/31 08:07:20;;;;;;;;;62.75;48.50;;;;;;;;5094000;27;45471;-85
2022/03/31 08:09:45;;;;;;;;;55.00;45.75;;;;;;;;5093504;27;45429;-85
2022/03/31 08:12:10;;;;;;;;;59.50;46.00;;;;;;;;5094650;27;45562;-85
2022/03/31 08:14:35;;;;;;;;;63.00;46.25;;;;;;;;5093663;27;45543;-85
2022/03/31 08:17:01;;;;;;;;;64.75;49.25;;;;;;;;5096702;27;46905;-85
2022/03/31 08:19:30;;;;;;;;;58.50;46.50;;;;;;;;5095496;27;45357;-85
2022/03/31 08:21:56;;;;;;;;;59.75;45.75;;;;;;;;5094909;27;45551;-85
2022/03/31 08:24:21;;;;;;;;;46.75;38.25;;;;;;;;5092954;27;45582;-85
2022/03/31 08:26:46;;;;;;;;;31.50;30.25;;;;;;;;5094465;27;45442;-84
2022/03/31 08:29:12;;;;;;;;;26.75;26.00;;;;;;;;5095307;27;45428;-84
2022/03/31 08:31:37;;;;;;;;;29.50;25.50;;;;;;;;5095091;27;45452;-85
2022/03/31 08:34:03;;;;;;;;;23.25;20.50;;;;;;;;5094720;27;45432;-85
2022/03/31 08:36:29;;;;;;;;;20.75;20.75;;;;;;;;5094401;27;45495;-84
2022/03/31 08:38:55;;;;;;;;;23.00;21.50;;;;;;;;5094458;27;45642;-85
2022/03/31 08:41:22;;;;;;;;;22.25;20.50;;;;;;;;5093137;27;45497;-85
2022/03/31 08:43:48;;;;;;;;;19.75;17.75;;;;;;;;5095316;27;45371;-85
2022/03/31 08:46:14;;;;;;;;;19.00;17.00;;;;;;;;5094039;27;46457;-85
2022/03/31 08:48:39;;;;;;;;;29.50;23.00;;;;;;;;5094582;27;45362;-85
2022/03/31 08:51:04;;;;;;;;;19.50;19.00;;;;;;;;5092894;27;45473;-84
2022/03/31 08:53:30;;;;;;;;;20.00;17.25;;;;;;;;5094615;27;45338;-85
2022/03/31 08:55:55;;;;;;;;;21.75;21.00;;;;;;;;5091604;27;45464;-84
2022/03/31 08:58:20;;;;;;;;;19.25;18.50;;;;;;;;5094157;27;45618;-85
2022/03/31 09:00:46;;;;;;;;;16.75;15.75;;;;;;;;5092796;27;45457;-85
2022/03/31 09:03:11;;;;;;;;;19.00;16.00;;;;;;;;5091391;27;45448;-85
2022/03/31 09:05:41;;;;;;;;;14.75;13.50;;;;;;;;5094016;27;46194;-85
2022/03/31 09:08:09;;;;;;;;;16.00;14.25;;;;;;;;5095726;27;45466;-84
2022/03/31 09:10:36;;;;;;;;;15.00;13.50;;;;;;;;5094895;27;45453;-85
2022/03/31 09:13:02;;;;;;;;;16.75;15.00;;;;;;;;5093949;27;45415;-85
2022/03/31 09:15:28;;;;;;;;;15.00;13.50;;;;;;;;5093868;27;45511;-86
2022/03/31 09:17:54;;;;;;;;;13.75;12.75;;;;;;;;5094255;27;45272;-85
2022/03/31 09:20:21;;;;;;;;;11.00;11.00;;;;;;;;5092684;27;45461;-85
2022/03/31 09:22:48;;;;;;;;;10.50;10.50;;;;;;;;5094514;27;45957;-84
2022/03/31 09:25:22;;;;;;;;;8.00;8.00;;;;;;;;5092117;27;47425;-84
2022/03/31 09:27:47;;;;;;;;;1.25;1.25;;;;;;;;5093910;27;45467;-85
2022/03/31 09:30:12;;;;;;;;;13.50;11.25;;;;;;;;5093689;27;45479;-84
2022/03/31 09:32:45;;;;;;;;;12.75;12.75;;;;;;;;5093969;27;45492;-85
2022/03/31 09:35:10;;;;;;;;;12.25;9.50;;;;;;;;5094590;27;46685;-85
2022/03/31 09:37:35;;;;;;;;;8.25;8.25;;;;;;;;5094837;27;45446;-84
2022/03/31 09:40:01;;;;;;;;;9.75;9.75;;;;;;;;5093935;27;45437;-84
2022/03/31 09:42:27;;;;;;;;;10.75;10.75;;;;;;;;5090899;27;45502;-84
2022/03/31 09:44:59;;;;;;;;;8.50;8.50;;;;;;;;5092266;27;47397;-84
2022/03/31 09:47:26;;;;;;;;;9.00;9.00;;;;;;;;5093749;27;45412;-83
2022/03/31 09:49:55;;;;;;;;;9.75;9.75;;;;;;;;5096029;27;45409;-84
2022/03/31 09:52:20;;;;;;;;;9.75;9.75;;;;;;;;5091971;27;45346;-84
2022/03/31 09:54:47;;;;;;;;;12.25;11.75;;;;;;;;5093344;27;45504;-85
2022/03/31 09:57:13;;;;;;;;;13.75;12.75;;;;;;;;5093322;27;45584;-85
2022/03/31 09:59:39;;;;;;;;;8.25;8.25;;;;;;;;5093889;27;45575;-84
2022/03/31 10:02:05;;;;;;;;;12.50;11.00;;;;;;;;5093840;27;45611;-84
2022/03/31 10:04:31;;;;;;;;;13.00;9.00;;;;;;;;5093984;27;46348;-84
2022/03/31 10:06:57;;;;;;;;;11.00;8.50;;;;;;;;5092933;27;45570;-84
2022/03/31 10:09:23;;;;;;;;;9.75;8.00;;;;;;;;5093414;27;45418;-84
2022/03/31 10:12:05;;;;;;;;;12.25;8.50;;;;;;;;5093482;27;45426;-85
2022/03/31 10:14:43;;;;;;;;;12.25;10.50;;;;;;;;5077614;27;45494;-84
2022/03/31 10:17:10;;;;;;;;;7.25;7.25;;;;;;;;5091954;27;45397;-84
2022/03/31 10:19:36;;;;;;;;;15.25;11.75;;;;;;;;5093465;27;45307;-84
2022/03/31 10:22:08;;;;;;;;;12.25;9.50;;;;;;;;5091698;27;45543;-84
2022/03/31 10:24:44;;;;;;;;;11.50;11.50;;;;;;;;5092684;27;45634;-85
2022/03/31 10:27:13;;;;;;;;;9.25;6.75;;;;;;;;5093086;27;45463;-84
2022/03/31 10:29:39;;;;;;;;;13.75;12.00;;;;;;;;5093217;27;45504;-85
2022/03/31 10:32:21;;;;;;;;;10.25;10.25;;;;;;;;5096722;27;45286;-84
2022/03/31 10:34:48;;;;;;;;;11.75;11.75;;;;;;;;5098484;27;46273;-84
2022/03/31 10:37:14;;;;;;;;;10.75;10.00;;;;;;;;5096060;27;45580;-84
2022/03/31 10:39:49;;;;;;;;;8.75;8.75;;;;;;;;5096428;27;45386;-85
2022/03/31 10:42:14;;;;;;;;;8.50;7.50;;;;;;;;5096573;27;45547;-84
2022/03/31 10:44:40;;;;;;;;;11.25;10.00;;;;;;;;5094897;27;47347;-84
2022/03/31 10:47:06;;;;;;;;;9.50;9.50;;;;;;;;5097885;27;45508;-84
2022/03/31 10:49:32;;;;;;;;;14.25;10.00;;;;;;;;5096163;27;45444;-85
2022/03/31 10:51:58;;;;;;;;;12.50;10.25;;;;;;;;5095964;27;45387;-84
2022/03/31 10:54:25;;;;;;;;;7.00;7.00;;;;;;;;5094740;27;47291;-84
2022/03/31 10:57:10;;;;;;;;;9.75;7.75;;;;;;;;5096396;27;45540;-84
2022/03/31 10:59:36;;;;;;;;;9.00;8.00;;;;;;;;5080827;27;46334;-84
2022/03/31 11:02:06;;;;;;;;;9.50;8.50;;;;;;;;5098129;27;45274;-85
2022/03/31 11:04:41;;;;;;;;;7.75;7.00;;;;;;;;5095025;27;46725;-85
2022/03/31 11:07:12;;;;;;;;;6.50;6.50;;;;;;;;5095876;27;45443;-85
2022/03/31 11:09:37;;;;;;;;;4.75;4.75;;;;;;;;5096159;27;45287;-85
2022/03/31 11:12:04;;;;;;;;;6.00;4.75;;;;;;;;5096303;27;45583;-84
2022/03/31 11:14:29;;;;;;;;;8.00;5.25;;;;;;;;5077299;27;47899;-85
2022/03/31 11:16:54;;;;;;;;;9.25;8.25;;;;;;;;5096621;27;45447;-84
2022/03/31 11:19:20;;;;;;;;;3.00;3.00;;;;;;;;5095644;27;45421;-85
2022/03/31 11:21:45;;;;;;;;;6.25;4.50;;;;;;;;5095709;27;45488;-84
2022/03/31 11:24:11;;;;;;;;;3.00;3.00;;;;;;;;5094083;27;47371;-83
2022/03/31 11:26:41;;;;;;;;;5.00;5.00;;;;;;;;5095870;27;45313;-83
2022/03/31 11:29:14;;;;;;;;;4.50;4.50;;;;;;;;5097296;27;45302;-83
2022/03/31 11:31:46;;;;;;;;;6.50;5.50;;;;;;;;5096294;27;45637;-83
2022/03/31 11:34:17;;;;;;;;;10.50;9.25;;;;;;;;5095104;27;46260;-83
2022/03/31 11:36:43;;;;;;;;;12.50;8.25;;;;;;;;5095550;27;45343;-83
2022/03/31 11:39:09;;;;;;;;;8.00;7.00;;;;;;;;5094272;27;45405;-83
2022/03/31 11:41:38;;;;;;;;;6.25;6.25;;;;;;;;5094260;27;45487;-83
2022/03/31 11:44:03;;;;;;;;;8.25;8.25;;;;;;;;5096802;27;45411;-83
2022/03/31 11:46:39;;;;;;;;;9.25;9.25;;;;;;;;5096196;27;45352;-83
2022/03/31 11:49:12;;;;;;;;;10.50;9.50;;;;;;;;5095122;27;45478;-83
2022/03/31 11:51:37;;;;;;;;;10.00;9.00;;;;;;;;5095267;27;45561;-83
2022/03/31 11:54:06;;;;;;;;;7.00;5.00;;;;;;;;5095348;27;46249;-84
2022/03/31 11:56:32;;;;;;;;;8.00;7.00;;;;;;;;5079763;27;45595;-84
2022/03/31 11:58:57;;;;;;;;;8.25;7.00;;;;;;;;5097564;27;45215;-84
2022/03/31 12:01:34;;;;;;;;;7.25;7.25;;;;;;;;5095447;27;45191;-83
2022/03/31 12:03:59;;;;;;;;;5.50;5.50;;;;;;;;5094473;27;46569;-84
2022/03/31 12:06:25;;;;;;;;;5.50;4.25;;;;;;;;5095029;27;45606;-83
2022/03/31 12:08:54;;;;;;;;;4.50;4.00;;;;;;;;5093843;27;45363;-84
2022/03/31 12:11:20;;;;;;;;;3.50;3.50;;;;;;;;5095309;27;45270;-83
2022/03/31 12:13:48;;;;;;;;;7.00;7.00;;;;;;;;5095738;27;48099;-83
2022/03/31 12:16:14;;;;;;;;;5.00;3.75;;;;;;;;5094857;27;45589;-84
2022/03/31 12:18:41;;;;;;;;;5.75;5.00;;;;;;;;5093212;27;45493;-84
2022/03/31 12:21:07;;;;;;;;;6.75;5.00;;;;;;;;5094989;27;45496;-84
2022/03/31 12:23:39;;;;;;;;;6.50;5.00;;;;;;;;5094631;27;45563;-83
2022/03/31 12:26:11;;;;;;;;;4.00;4.00;;;;;;;;5096401;27;45684;-84
2022/03/31 12:28:46;;;;;;;;;8.00;7.50;;;;;;;;5096382;27;45246;-84
2022/03/31 12:31:26;;;;;;;;;6.00;5.75;;;;;;;;5094548;27;46302;-84
2022/03/31 12:33:52;;;;;;;;;9.00;8.25;;;;;;;;5094229;27;46251;-83
2022/03/31 12:36:22;;;;;;;;;4.00;4.00;;;;;;;;5094678;27;45389;-84
2022/03/31 12:38:49;;;;;;;;;5.75;5.75;;;;;;;;5094831;27;45503;-84
2022/03/31 12:41:17;;;;;;;;;6.00;5.00;;;;;;;;5095161;27;45442;-84
2022/03/31 12:43:53;;;;;;;;;5.50;5.50;;;;;;;;5094413;27;45625;-84
2022/03/31 12:46:19;;;;;;;;;9.25;7.75;;;;;;;;5093951;27;45481;-84
2022/03/31 12:48:53;;;;;;;;;8.50;6.25;;;;;;;;5094724;27;45486;-84
2022/03/31 12:51:18;;;;;;;;;9.75;5.50;;;;;;;;5093193;27;45528;-84
2022/03/31 12:53:43;;;;;;;;;12.00;11.00;;;;;;;;5092553;27;45464;-85
2022/03/31 12:56:09;;;;;;;;;7.50;7.50;;;;;;;;5095352;27;45519;-84
2022/03/31 12:58:37;;;;;;;;;9.25;7.00;;;;;;;;5094415;27;45301;-84
2022/03/31 13:01:03;;;;;;;;;9.00;6.75;;;;;;;;5093943;27;45231;-85
2022/03/31 13:03:29;;;;;;;;;7.75;7.75;;;;;;;;5092581;27;47474;-84
2022/03/31 13:05:54;;;;;;;;;9.00;9.00;;;;;;;;5093934;27;45364;-84
2022/03/31 13:08:20;;;;;;;;;8.00;6.00;;;;;;;;5094143;27;45307;-85
2022/03/31 13:10:45;;;;;;;;;4.75;4.50;;;;;;;;5096416;27;45869;-84
2022/03/31 13:13:10;;;;;;;;;6.00;6.00;;;;;;;;5093883;27;45533;-84
2022/03/31 13:15:35;;;;;;;;;6.00;6.00;;;;;;;;5093583;27;45425;-85
2022/03/31 13:18:01;;;;;;;;;8.75;8.75;;;;;;;;5094493;27;45401;-84
2022/03/31 13:20:26;;;;;;;;;7.50;7.50;;;;;;;;5094068;27;45431;-84
2022/03/31 13:22:51;;;;;;;;;9.00;7.25;;;;;;;;5095919;27;46552;-84
2022/03/31 13:25:17;;;;;;;;;9.00;9.00;;;;;;;;5093585;27;45358;-84
2022/03/31 13:27:42;;;;;;;;;9.50;9.50;;;;;;;;5092590;27;45678;-85
2022/03/31 13:30:08;;;;;;;;;7.25;7.25;;;;;;;;5092369;27;45450;-84
2022/03/31 13:32:34;;;;;;;;;8.00;8.00;;;;;;;;5092471;27;48365;-84
2022/03/31 13:34:59;;;;;;;;;6.50;6.50;;;;;;;;5094802;27;45498;-84
2022/03/31 13:37:25;;;;;;;;;5.00;4.00;;;;;;;;5092546;27;45417;-84
2022/03/31 13:39:51;;;;;;;;;7.00;6.00;;;;;;;;5093583;27;45519;-85
2022/03/31 13:42:17;;;;;;;;;6.25;6.00;;;;;;;;5091955;27;47153;-85
2022/03/31 13:44:42;;;;;;;;;12.25;8.25;;;;;;;;5093217;27;45276;-85
2022/03/31 13:47:08;;;;;;;;;7.75;6.50;;;;;;;;5095290;27;45446;-85
2022/03/31 13:49:34;;;;;;;;;6.00;6.00;;;;;;;;5093597;27;45536;-84
2022/03/31 13:52:00;;;;;;;;;11.25;7.25;;;;;;;;5093406;27;45298;-84
2022/03/31 13:54:26;;;;;;;;;6.50;6.50;;;;;;;;5093513;27;45529;-85
2022/03/31 13:56:52;;;;;;;;;5.50;5.50;;;;;;;;5093745;27;45440;-86
2022/03/31 14:02:03;;;;;;;;;8.00;6.25;;;;;;;;5091420;27;45338;-85
2022/03/31 14:04:28;;;;;;;;;6.50;6.50;;;;;;;;5092740;27;45452;-82
2022/03/31 14:06:54;;;;;;;;;10.00;8.75;;;;;;;;5093774;27;45403;-81
2022/03/31 14:09:22;;;;;;;;;7.00;5.75;;;;;;;;5096230;27;45312;-81
2022/03/31 14:11:47;;;;;;;;;8.75;7.00;;;;;;;;5097417;27;45624;-81
2022/03/31 14:14:14;;;;;;;;;7.75;7.75;;;;;;;;5096572;27;45547;-81
2022/03/31 14:16:41;;;;;;;;;8.75;8.75;;;;;;;;5098364;27;45423;-81
2022/03/31 14:19:07;;;;;;;;;7.00;7.00;;;;;;;;5097473;27;45311;-81
2022/03/31 14:21:33;;;;;;;;;6.50;6.50;;;;;;;;5095858;27;47752;-81
2022/03/31 14:23:58;;;;;;;;;7.00;7.00;;;;;;;;5096162;27;45401;-81